createdAt,value
2023-04-12T00:01:18.548Z,7.89
2023-04-12T00:03:50.949Z,8.15
2023-04-12T00:06:19.031Z,8.06
2023-04-12T00:08:48.105Z,7.67
2023-04-12T00:11:15.831Z,7.50
2023-04-12T00:13:43.561Z,7.26
2023-04-12T00:16:15.936Z,7.57
2023-04-12T00:18:45.882Z,7.60
2023-04-12T00:21:13.757Z,7.44
2023-04-12T00:23:41.476Z,7.71
2023-04-12T00:26:10.574Z,7.52
2023-04-12T00:28:38.290Z,7.82
2023-04-12T00:31:06.643Z,7.62
2023-04-12T00:33:35.071Z,7.63
2023-04-12T00:36:02.842Z,7.53
2023-04-12T00:38:30.992Z,7.53
2023-04-12T00:40:58.966Z,7.27
2023-04-12T00:43:28.769Z,7.64
2023-04-12T00:45:58.860Z,7.52
2023-04-12T00:48:27.651Z,7.66
2023-04-12T00:50:57.748Z,7.28
2023-04-12T00:53:25.610Z,7.68
2023-04-12T00:55:53.516Z,7.38
2023-04-12T00:58:24.234Z,7.09
2023-04-12T01:00:54.710Z,7.43
2023-04-12T01:03:24.060Z,7.19
2023-04-12T01:06:05.331Z,7.74
2023-04-12T01:08:45.368Z,7.29
2023-04-12T01:11:19.051Z,7.44
2023-04-12T01:13:54.144Z,7.19
2023-04-12T01:16:32.951Z,7.30
2023-04-12T01:19:05.909Z,7.71
2023-04-12T01:21:46.174Z,7.59
2023-04-12T01:24:29.081Z,6.64
2023-04-12T01:27:00.704Z,6.71
2023-04-12T01:29:32.465Z,6.88
2023-04-12T01:32:02.442Z,6.96
2023-04-12T01:34:33.400Z,6.79
2023-04-12T01:37:04.143Z,6.79
2023-04-12T01:39:34.255Z,6.66
2023-04-12T01:42:01.993Z,6.19
2023-04-12T01:44:31.255Z,5.98
2023-04-12T01:46:59.035Z,5.89
2023-04-12T01:49:30.353Z,6.18
2023-04-12T01:52:05.655Z,5.93
2023-04-12T01:54:43.703Z,6.01
2023-04-12T01:57:12.941Z,6.12
2023-04-12T01:59:44.487Z,6.26
2023-04-12T02:02:14.044Z,6.18
2023-04-12T02:04:43.371Z,6.04
2023-04-12T02:07:11.432Z,5.86
2023-04-12T02:09:39.810Z,6.05
2023-04-12T02:12:08.466Z,5.89
2023-04-12T02:14:36.855Z,6.04
2023-04-12T02:17:06.210Z,6.45
2023-04-12T02:19:33.871Z,6.17
2023-04-12T02:22:02.226Z,6.50
2023-04-12T02:24:30.165Z,6.65
2023-04-12T02:26:59.734Z,6.28
2023-04-12T02:29:27.545Z,6.12
2023-04-12T02:31:55.524Z,6.30
2023-04-12T02:34:24.711Z,6.25
2023-04-12T02:36:52.479Z,6.03
2023-04-12T02:39:22.252Z,5.71
2023-04-12T02:41:50.245Z,5.85
2023-04-12T02:44:18.029Z,5.83
2023-04-12T02:46:45.723Z,6.22
2023-04-12T02:49:13.426Z,6.12
2023-04-12T02:51:42.770Z,6.00
2023-04-12T02:54:10.653Z,5.98
2023-04-12T02:56:38.390Z,5.66
2023-04-12T02:59:06.906Z,5.98
2023-04-12T03:01:34.771Z,5.94
2023-04-12T03:04:02.990Z,5.81
2023-04-12T03:06:32.077Z,5.71
2023-04-12T03:09:01.181Z,5.95
2023-04-12T03:11:28.923Z,6.16
2023-04-12T03:13:56.865Z,6.48
2023-04-12T03:16:30.055Z,6.56
2023-04-12T03:18:58.015Z,6.38
2023-04-12T03:21:26.019Z,6.52
2023-04-12T03:23:53.776Z,5.75
2023-04-12T03:26:22.856Z,5.70
2023-04-12T03:28:50.879Z,5.85
2023-04-12T03:31:21.020Z,5.54
2023-04-12T03:33:48.808Z,5.84
2023-04-12T03:36:16.569Z,5.66
2023-04-12T03:38:44.315Z,5.85
2023-04-12T03:41:12.076Z,5.83
2023-04-12T03:43:42.526Z,5.63
2023-04-12T03:46:10.722Z,5.90
2023-04-12T03:48:38.627Z,5.49
2023-04-12T03:51:08.233Z,5.83
2023-04-12T03:53:36.175Z,5.64
2023-04-12T03:56:03.889Z,5.70
2023-04-12T03:58:33.892Z,5.53
2023-04-12T04:01:03.888Z,5.39
2023-04-12T04:03:35.019Z,5.12
2023-04-12T04:06:03.449Z,5.48
2023-04-12T04:08:32.589Z,5.28
2023-04-12T04:11:00.698Z,5.26
2023-04-12T04:13:28.855Z,5.44
2023-04-12T04:16:01.357Z,5.90
2023-04-12T04:18:31.170Z,5.20
2023-04-12T04:20:58.984Z,5.58
2023-04-12T04:23:29.280Z,5.51
2023-04-12T04:25:57.458Z,5.35
2023-04-12T04:28:25.265Z,5.36
2023-04-12T04:30:55.704Z,5.54
2023-04-12T04:33:23.446Z,5.22
2023-04-12T04:35:52.836Z,5.48
2023-04-12T04:38:25.598Z,5.43
2023-04-12T04:40:54.261Z,5.60
2023-04-12T04:43:22.204Z,5.50
2023-04-12T04:45:54.655Z,5.55
2023-04-12T04:48:22.477Z,5.14
2023-04-12T04:50:51.699Z,5.24
2023-04-12T04:53:22.559Z,5.28
2023-04-12T04:55:50.382Z,5.33
2023-04-12T04:58:18.090Z,5.36
2023-04-12T05:00:46.056Z,5.41
2023-04-12T05:03:13.918Z,5.36
2023-04-12T05:05:41.768Z,5.43
2023-04-12T05:08:09.476Z,5.81
2023-04-12T05:10:38.578Z,5.64
2023-04-12T05:13:06.286Z,5.78
2023-04-12T05:15:34.028Z,5.56
2023-04-12T05:18:01.926Z,5.93
2023-04-12T05:20:29.746Z,6.07
2023-04-12T05:22:57.511Z,5.95
2023-04-12T05:25:25.284Z,5.95
2023-04-12T05:27:54.365Z,6.59
2023-04-12T05:30:22.250Z,6.63
2023-04-12T05:32:50.000Z,6.39
2023-04-12T05:35:18.163Z,6.59
2023-04-12T05:37:46.078Z,6.67
2023-04-12T05:40:14.024Z,6.50
2023-04-12T05:42:42.138Z,6.81
2023-04-12T05:45:12.110Z,6.84
2023-04-12T05:47:39.820Z,6.87
2023-04-12T05:50:08.748Z,7.31
2023-04-12T05:52:38.161Z,6.86
2023-04-12T05:55:06.770Z,7.33
2023-04-12T05:57:34.532Z,7.29
2023-04-12T06:00:02.298Z,7.61
2023-04-12T06:02:32.374Z,7.73
2023-04-12T06:05:00.812Z,7.62
2023-04-12T06:07:28.792Z,7.93
2023-04-12T06:09:56.511Z,7.88
2023-04-12T06:12:24.361Z,7.81
2023-04-12T06:14:52.326Z,7.64
2023-04-12T06:17:20.239Z,7.78
2023-04-12T06:19:49.415Z,8.06
2023-04-12T06:22:17.271Z,7.96
2023-04-12T06:24:44.972Z,7.56
2023-04-12T06:27:12.700Z,7.80
2023-04-12T06:29:40.382Z,8.08
2023-04-12T06:32:08.232Z,8.02
2023-04-12T06:34:36.184Z,8.13
2023-04-12T06:37:05.426Z,8.58
2023-04-12T06:39:33.188Z,8.61
2023-04-12T06:42:01.574Z,8.62
2023-04-12T06:44:29.349Z,9.18
2023-04-12T06:46:57.118Z,9.07
2023-04-12T06:49:25.505Z,8.93
2023-04-12T06:51:53.240Z,9.43
2023-04-12T06:54:22.670Z,9.51
2023-04-12T06:56:50.409Z,9.51
2023-04-12T06:59:18.177Z,9.05
2023-04-12T07:01:45.933Z,9.45
2023-04-12T07:04:13.889Z,10.07
2023-04-12T07:06:42.629Z,10.03
2023-04-12T07:09:10.367Z,10.15
2023-04-12T07:11:39.598Z,10.36
2023-04-12T07:14:07.302Z,10.28
2023-04-12T07:16:35.040Z,9.93
2023-04-12T07:19:02.831Z,10.83
2023-04-12T07:21:30.565Z,11.21
2023-04-12T07:23:58.288Z,10.30
2023-04-12T07:26:26.044Z,10.56
2023-04-12T07:28:55.366Z,11.10
2023-04-12T07:31:23.714Z,11.00
2023-04-12T07:33:51.761Z,10.60
2023-04-12T07:36:21.290Z,10.58
2023-04-12T07:38:55.157Z,10.70
2023-04-12T07:41:23.530Z,10.80
2023-04-12T07:43:51.614Z,11.56
2023-04-12T07:46:20.994Z,11.90
2023-04-12T07:48:48.869Z,11.88
2023-04-12T07:51:16.609Z,11.91
2023-04-12T07:53:48.220Z,11.30
2023-04-12T07:56:16.379Z,11.38
2023-04-12T07:58:44.159Z,11.30
2023-04-12T08:01:13.452Z,11.56
2023-04-12T08:03:43.018Z,11.37
2023-04-12T08:06:11.030Z,11.33
2023-04-12T08:08:38.834Z,11.14
2023-04-12T08:11:06.935Z,11.85
2023-04-12T08:13:35.314Z,12.20
2023-04-12T08:16:03.182Z,12.05
2023-04-12T08:18:31.241Z,11.82
2023-04-12T08:21:00.465Z,12.22
2023-04-12T08:23:28.228Z,11.95
2023-04-12T08:26:03.174Z,11.95
2023-04-12T08:28:31.069Z,12.24
2023-04-12T08:30:59.337Z,11.98
2023-04-12T08:33:27.469Z,12.58
2023-04-12T08:35:55.711Z,12.47
2023-04-12T08:38:37.119Z,12.59
2023-04-12T08:41:05.892Z,12.32
2023-04-12T08:43:34.652Z,12.85
2023-04-12T08:46:03.246Z,12.92
2023-04-12T08:48:31.056Z,12.42
2023-04-12T08:50:58.813Z,12.56
2023-04-12T08:53:28.223Z,12.51
2023-04-12T08:55:55.950Z,12.52
2023-04-12T08:58:24.938Z,12.89
2023-04-12T09:00:52.880Z,13.65
2023-04-12T09:03:21.429Z,13.33
2023-04-12T09:05:49.531Z,13.16
2023-04-12T09:08:17.539Z,14.08
2023-04-12T09:10:46.622Z,13.22
2023-04-12T09:13:14.402Z,13.58
2023-04-12T09:15:49.777Z,13.85
2023-04-12T09:18:17.677Z,13.78
2023-04-12T09:20:45.439Z,13.62
2023-04-12T09:23:20.619Z,13.77
2023-04-12T09:25:52.685Z,14.71
2023-04-12T09:28:22.677Z,14.61
2023-04-12T09:30:52.549Z,15.34
2023-04-12T09:33:21.553Z,15.83
2023-04-12T09:35:50.043Z,15.07
2023-04-12T09:38:18.110Z,15.17
2023-04-12T09:40:46.011Z,15.00
2023-04-12T09:43:15.823Z,15.51
2023-04-12T09:45:43.585Z,16.21
2023-04-12T09:48:20.964Z,17.19
2023-04-12T09:50:49.219Z,17.26
2023-04-12T09:53:18.375Z,16.26
2023-04-12T09:55:47.771Z,16.59
2023-04-12T09:58:21.320Z,16.31
2023-04-12T10:00:49.492Z,17.22
2023-04-12T10:03:17.424Z,17.04
2023-04-12T10:05:45.242Z,17.38
2023-04-12T10:08:13.112Z,16.97
2023-04-12T10:10:41.205Z,16.74
2023-04-12T10:13:11.375Z,16.19
2023-04-12T10:15:40.743Z,16.39
2023-04-12T10:18:09.256Z,16.68
2023-04-12T10:20:41.322Z,16.54
2023-04-12T10:23:10.192Z,17.04
2023-04-12T10:25:42.128Z,16.61
2023-04-12T10:28:16.077Z,17.20
2023-04-12T10:30:48.089Z,15.94
2023-04-12T10:33:18.204Z,16.45
2023-04-12T10:35:54.969Z,17.86
2023-04-12T10:38:25.032Z,16.83
2023-04-12T10:41:15.628Z,17.02
2023-04-12T10:43:44.901Z,17.03
2023-04-12T10:46:46.408Z,16.59
2023-04-12T10:49:16.504Z,17.36
2023-04-12T10:52:22.608Z,17.33
2023-04-12T10:54:50.905Z,18.55
2023-04-12T10:57:49.641Z,18.98
2023-04-12T11:00:18.120Z,18.11
2023-04-12T11:03:11.914Z,18.29
2023-04-12T11:06:12.787Z,17.49
2023-04-12T11:08:50.130Z,18.11
2023-04-12T11:11:22.654Z,18.58
2023-04-12T11:13:56.286Z,18.33
2023-04-12T11:16:24.112Z,19.09
2023-04-12T11:18:52.916Z,18.29
2023-04-12T11:21:22.361Z,17.52
2023-04-12T11:23:50.165Z,17.32
2023-04-12T11:26:20.920Z,17.87
2023-04-12T11:28:53.024Z,17.70
2023-04-12T11:31:21.509Z,17.88
2023-04-12T11:33:49.262Z,17.99
2023-04-12T11:36:17.020Z,17.31
2023-04-12T11:38:48.082Z,16.45
2023-04-12T11:41:16.883Z,16.56
2023-04-12T11:43:45.336Z,17.37
2023-04-12T11:46:14.004Z,18.93
2023-04-12T11:48:46.539Z,19.38
2023-04-12T11:51:21.182Z,19.13
2023-04-12T11:53:54.271Z,18.08
2023-04-12T11:56:22.229Z,18.72
2023-04-12T11:58:50.245Z,17.82
2023-04-12T12:01:19.944Z,17.31
2023-04-12T12:03:48.266Z,17.54
2023-04-12T12:06:16.963Z,17.81
2023-04-12T12:08:45.336Z,17.52
2023-04-12T12:11:14.741Z,17.23
2023-04-12T12:13:47.146Z,16.43
2023-04-12T12:16:15.211Z,17.22
2023-04-12T12:18:43.480Z,18.37
2023-04-12T12:21:11.835Z,18.43
2023-04-12T12:23:40.122Z,17.11
2023-04-12T12:26:17.961Z,17.28
2023-04-12T12:28:51.706Z,16.92
2023-04-12T12:31:21.483Z,16.55
2023-04-12T12:33:49.764Z,16.08
2023-04-12T12:36:20.961Z,15.69
2023-04-12T12:38:51.316Z,15.66
2023-04-12T12:41:19.973Z,15.11
2023-04-12T12:43:49.383Z,15.57
2023-04-12T12:46:17.905Z,15.52
2023-04-12T12:48:46.720Z,15.20
2023-04-12T12:51:17.809Z,15.57
2023-04-12T12:53:46.066Z,15.45
2023-04-12T12:56:14.782Z,15.28
2023-04-12T12:58:43.042Z,15.38
2023-04-12T13:01:12.253Z,15.78
2023-04-12T13:03:40.098Z,15.63
2023-04-12T13:06:09.106Z,15.46
2023-04-12T13:08:37.279Z,15.75
2023-04-12T13:11:05.648Z,15.68
2023-04-12T13:13:33.455Z,15.74
2023-04-12T13:16:01.201Z,16.35
2023-04-12T13:18:30.401Z,16.25
2023-04-12T13:20:58.130Z,15.97
2023-04-12T13:23:25.828Z,15.68
2023-04-12T13:25:53.539Z,15.31
2023-04-12T13:28:21.407Z,16.02
2023-04-12T13:30:49.394Z,16.52
2023-04-12T13:33:21.011Z,16.56
2023-04-12T13:35:51.100Z,15.79
2023-04-12T13:38:18.862Z,15.43
2023-04-12T13:40:46.604Z,15.59
2023-04-12T13:43:14.368Z,15.59
2023-04-12T13:45:42.188Z,15.44
2023-04-12T13:48:10.077Z,15.59
2023-04-12T13:50:37.912Z,15.70
2023-04-12T13:53:07.014Z,14.79
2023-04-12T13:55:34.991Z,15.27
2023-04-12T13:58:02.706Z,15.18
2023-04-12T14:00:30.506Z,15.53
2023-04-12T14:02:58.316Z,15.30
2023-04-12T14:05:26.097Z,15.40
2023-04-12T14:07:55.627Z,15.28
2023-04-12T14:10:24.733Z,15.20
2023-04-12T14:12:52.500Z,15.37
2023-04-12T14:15:20.325Z,15.26
2023-04-12T14:17:48.339Z,15.29
2023-04-12T14:20:18.896Z,15.08
2023-04-12T14:22:47.363Z,15.31
2023-04-12T14:25:15.081Z,16.06
2023-04-12T14:27:45.332Z,15.50
2023-04-12T14:30:13.596Z,14.87
2023-04-12T14:32:41.609Z,15.28
2023-04-12T14:35:10.457Z,15.64
2023-04-12T14:37:38.178Z,15.11
2023-04-12T14:40:08.401Z,14.98
2023-04-12T14:42:36.254Z,15.07
2023-04-12T14:45:08.084Z,14.69
2023-04-12T14:47:35.836Z,14.62
2023-04-12T14:50:03.884Z,14.12
2023-04-12T14:52:31.977Z,14.55
2023-04-12T14:55:01.339Z,14.40
2023-04-12T14:57:29.058Z,14.86
2023-04-12T14:59:57.317Z,14.84
2023-04-12T15:02:26.905Z,14.76
2023-04-12T15:04:55.048Z,14.51
2023-04-12T15:07:23.102Z,14.25
2023-04-12T15:09:50.875Z,14.20
2023-04-12T15:12:18.613Z,14.34
2023-04-12T15:14:47.311Z,14.84
2023-04-12T15:17:15.122Z,14.86
2023-04-12T15:19:44.200Z,14.11
2023-04-12T15:22:11.933Z,14.86
2023-04-12T15:24:39.683Z,14.74
2023-04-12T15:27:07.690Z,14.42
2023-04-12T15:29:35.973Z,14.68
2023-04-12T15:32:03.724Z,14.27
2023-04-12T15:34:33.895Z,14.36
2023-04-12T15:37:03.142Z,14.81
2023-04-12T15:39:30.930Z,14.37
2023-04-12T15:42:00.286Z,15.31
2023-04-12T15:44:31.696Z,14.15
2023-04-12T15:47:07.880Z,14.27
2023-04-12T15:49:39.125Z,13.39
2023-04-12T15:52:08.254Z,13.48
2023-04-12T15:54:43.435Z,13.63
2023-04-12T15:57:11.998Z,14.07
2023-04-12T15:59:41.947Z,14.18
2023-04-12T16:02:10.343Z,14.19
2023-04-12T16:04:39.271Z,13.94
2023-04-12T16:07:09.080Z,13.73
2023-04-12T16:09:39.554Z,13.82
2023-04-12T16:12:07.759Z,13.80
2023-04-12T16:14:36.769Z,13.73
2023-04-12T16:17:04.490Z,13.75
2023-04-12T16:19:32.289Z,14.32
2023-04-12T16:22:00.346Z,14.16
2023-04-12T16:24:29.700Z,13.92
2023-04-12T16:26:57.446Z,14.08
2023-04-12T16:29:25.228Z,13.88
2023-04-12T16:31:53.014Z,13.75
2023-04-12T16:34:22.276Z,13.31
2023-04-12T16:36:51.241Z,13.84
2023-04-12T16:39:19.084Z,13.48
2023-04-12T16:41:48.168Z,13.82
2023-04-12T16:44:18.721Z,13.72
2023-04-12T16:46:47.863Z,13.89
2023-04-12T16:49:17.565Z,14.05
2023-04-12T16:51:46.922Z,14.08
2023-04-12T16:54:14.665Z,14.03
2023-04-12T16:56:42.804Z,13.48
2023-04-12T16:59:12.085Z,13.61
2023-04-12T17:01:39.861Z,14.12
2023-04-12T17:04:07.963Z,14.32
2023-04-12T17:06:35.920Z,13.99
2023-04-12T17:09:04.891Z,13.85
2023-04-12T17:11:32.707Z,13.36
2023-04-12T17:14:00.643Z,13.66
2023-04-12T17:16:29.880Z,13.35
2023-04-12T17:18:57.780Z,13.21
2023-04-12T17:21:26.172Z,13.47
2023-04-12T17:23:56.041Z,13.68
2023-04-12T17:26:26.063Z,13.00
2023-04-12T17:28:54.656Z,13.65
2023-04-12T17:31:22.619Z,13.31
2023-04-12T17:33:51.797Z,13.29
2023-04-12T17:36:19.560Z,12.94
2023-04-12T17:38:47.287Z,13.02
2023-04-12T17:41:15.095Z,12.68
2023-04-12T17:43:42.794Z,13.53
2023-04-12T17:46:10.548Z,12.87
2023-04-12T17:48:38.338Z,12.85
2023-04-12T17:51:09.758Z,12.81
2023-04-12T17:53:37.691Z,13.00
2023-04-12T17:56:05.762Z,12.77
2023-04-12T17:58:34.362Z,12.68
2023-04-12T18:01:02.129Z,12.20
2023-04-12T18:03:30.182Z,12.41
2023-04-12T18:05:59.344Z,12.10
2023-04-12T18:08:28.470Z,12.40
2023-04-12T18:10:56.170Z,12.61
2023-04-12T18:13:23.891Z,12.61
2023-04-12T18:15:51.915Z,12.71
2023-04-12T18:18:19.666Z,12.96
2023-04-12T18:20:47.428Z,12.90
2023-04-12T18:23:15.236Z,12.80
2023-04-12T18:25:45.350Z,13.47
2023-04-12T18:28:13.087Z,13.29
2023-04-12T18:30:41.062Z,13.09
2023-04-12T18:33:08.880Z,13.43
2023-04-12T18:35:38.858Z,12.90
2023-04-12T18:38:06.767Z,12.74
2023-04-12T18:40:37.817Z,12.99
2023-04-12T18:43:08.133Z,13.06
2023-04-12T18:45:39.676Z,12.89
2023-04-12T18:48:08.554Z,12.80
2023-04-12T18:50:36.634Z,12.64
2023-04-12T18:53:04.372Z,12.65
2023-04-12T18:55:32.273Z,12.86
2023-04-12T18:57:59.992Z,13.05
2023-04-12T19:00:29.366Z,12.94
2023-04-12T19:02:57.153Z,12.89
2023-04-12T19:05:25.132Z,13.28
2023-04-12T19:07:53.010Z,12.75
2023-04-12T19:10:24.228Z,13.13
2023-04-12T19:12:51.927Z,12.62
2023-04-12T19:15:19.842Z,12.74
2023-04-12T19:17:49.897Z,12.82
2023-04-12T19:20:17.748Z,12.45
2023-04-12T19:22:45.652Z,12.44
2023-04-12T19:25:14.244Z,12.37
2023-04-12T19:27:41.997Z,12.44
2023-04-12T19:30:12.919Z,12.58
2023-04-12T19:32:40.722Z,12.28
2023-04-12T19:35:10.862Z,12.08
2023-04-12T19:37:38.626Z,13.01
2023-04-12T19:40:07.575Z,13.20
2023-04-12T19:42:35.323Z,12.95
2023-04-12T19:45:03.381Z,12.77
2023-04-12T19:47:31.269Z,12.58
2023-04-12T19:49:59.506Z,12.67
2023-04-12T19:52:28.789Z,13.15
2023-04-12T19:54:57.123Z,12.95
2023-04-12T19:57:25.103Z,12.80
2023-04-12T19:59:53.277Z,12.89
2023-04-12T20:02:21.365Z,12.36
2023-04-12T20:04:49.167Z,12.87
2023-04-12T20:07:16.892Z,12.53
2023-04-12T20:09:46.014Z,12.94
2023-04-12T20:12:13.812Z,13.16
2023-04-12T20:14:41.553Z,12.88
2023-04-12T20:17:10.318Z,12.75
2023-04-12T20:19:38.053Z,13.07
2023-04-12T20:22:06.313Z,12.76
2023-04-12T20:24:34.589Z,13.01
2023-04-12T20:27:03.801Z,12.89
2023-04-12T20:29:33.369Z,12.58
2023-04-12T20:32:02.240Z,12.60
2023-04-12T20:34:29.964Z,12.63
2023-04-12T20:36:57.873Z,12.63
2023-04-12T20:39:25.601Z,12.53
2023-04-12T20:41:54.876Z,12.26
2023-04-12T20:44:24.022Z,12.45
2023-04-12T20:46:52.845Z,12.41
2023-04-12T20:49:20.823Z,12.73
2023-04-12T20:51:49.878Z,12.33
2023-04-12T20:54:18.387Z,12.50
2023-04-12T20:56:46.087Z,12.14
2023-04-12T20:59:14.133Z,12.27
2023-04-12T21:01:45.782Z,12.50
2023-04-12T21:04:14.467Z,12.49
2023-04-12T21:06:42.314Z,12.40
2023-04-12T21:09:10.132Z,12.45
2023-04-12T21:11:38.827Z,12.64
2023-04-12T21:14:07.122Z,12.29
2023-04-12T21:16:38.831Z,12.56
2023-04-12T21:19:08.554Z,13.02
2023-04-12T21:21:36.480Z,12.47
2023-04-12T21:24:04.851Z,12.67
2023-04-12T21:26:32.829Z,12.62
2023-04-12T21:29:01.297Z,12.32
2023-04-12T21:31:30.556Z,12.70
2023-04-12T21:33:59.772Z,12.45
2023-04-12T21:36:30.155Z,12.66
2023-04-12T21:39:00.228Z,12.35
2023-04-12T21:41:29.650Z,12.81
2023-04-12T21:43:57.442Z,12.46
2023-04-12T21:46:27.492Z,12.68
2023-04-12T21:48:55.625Z,12.25
2023-04-12T21:51:24.742Z,12.50
2023-04-12T21:53:53.855Z,12.36
2023-04-12T21:56:21.566Z,12.24
2023-04-12T21:58:49.300Z,12.08
2023-04-12T22:01:17.073Z,12.05
2023-04-12T22:03:45.319Z,11.93
2023-04-12T22:06:13.187Z,11.88
2023-04-12T22:08:44.093Z,12.17
2023-04-12T22:11:13.235Z,11.91
2023-04-12T22:13:41.824Z,11.95
2023-04-12T22:16:13.601Z,12.10
2023-04-12T22:18:42.533Z,12.36
2023-04-12T22:21:12.100Z,11.98
2023-04-12T22:23:40.635Z,11.47
2023-04-12T22:26:09.337Z,11.77
2023-04-12T22:28:39.625Z,12.01
2023-04-12T22:31:08.378Z,12.00
2023-04-12T22:33:37.014Z,11.83
2023-04-12T22:36:06.160Z,11.81
2023-04-12T22:38:35.647Z,11.78
2023-04-12T22:41:03.403Z,11.88
2023-04-12T22:43:34.021Z,11.74
2023-04-12T22:46:04.449Z,11.76
2023-04-12T22:48:32.366Z,11.47
2023-04-12T22:51:01.041Z,11.43
2023-04-12T22:53:29.684Z,11.70
2023-04-12T22:55:58.001Z,11.72
2023-04-12T22:58:26.065Z,11.53
2023-04-12T23:00:55.322Z,11.65
2023-04-12T23:03:24.467Z,11.74
2023-04-12T23:05:52.297Z,11.75
2023-04-12T23:08:21.129Z,11.55
2023-04-12T23:10:49.459Z,11.41
2023-04-12T23:13:17.188Z,11.26
2023-04-12T23:15:45.053Z,11.87
2023-04-12T23:18:12.898Z,11.89
2023-04-12T23:20:44.800Z,11.42
2023-04-12T23:23:12.530Z,11.61
2023-04-12T23:25:41.278Z,12.21
2023-04-12T23:28:12.573Z,12.15
2023-04-12T23:30:41.692Z,11.86
2023-04-12T23:33:12.436Z,12.03
2023-04-12T23:35:42.491Z,11.83
2023-04-12T23:38:10.530Z,11.81
2023-04-12T23:40:38.261Z,11.72
2023-04-12T23:43:08.561Z,12.10
2023-04-12T23:45:36.804Z,11.75
2023-04-12T23:48:05.558Z,12.09
2023-04-12T23:50:33.449Z,12.71
2023-04-12T23:53:03.359Z,11.60
2023-04-12T23:55:31.070Z,12.23
2023-04-12T23:57:58.797Z,12.30
